Butterfly — C6UP2 — position and weather

sailwx.info

Track history (hours):
 
Tides and Currents Weather Stations Pressure Air Temp Water Temp Dewpoint Dewpoint Depression Visibility Wind Speed Wind Dir Waves Ship Positions

Butterfly

Last reported at 2016-Jul-26 14:31 UTC. Time now 2016-Jul-27 21:05 UTC.
Position N 46°45' W 127°54'.

Length 182 m; draft 11.9 m.

Type: Tanker. MMSI: 311985000.

Date/timePositionNaut miles runAvg speedWind from/ knotsBaromVisibWave heightAir tempDewpointWater temp
2016-Jul-26 14:31N 46°45' W 127°54'1512.9
2016-Jul-26 13:24N 46°54' W 127°38'1212.8
2016-Jul-26 12:29N 47°02' W 127°26'1213.0
2016-Jul-26 11:33N 47°10' W 127°12'1313.0
2016-Jul-26 10:33N 47°19' W 126°58'1313.0
2016-Jul-26 09:31N 47°28' W 126°43'1313.1
2016-Jul-26 08:34N 47°36' W 126°29'1312.9
2016-Jul-26 07:33N 47°45' W 126°15'1312.9
2016-Jul-26 06:34N 47°53' W 126°01'1312.8
2016-Jul-26 05:33N 48°02' W 125°46'1312.7
2016-Jul-26 04:32N 48°10' W 125°32'1312.8
2016-Jul-26 03:33N 48°19' W 125°18'1212.2
2016-Jul-26 02:33N 48°27' W 125°04'1611.2
2016-Jul-26 01:10N 48°30' W 124°41'2012.0
2016-Jul-25 23:31N 48°22' W 124°14'1212.3
2016-Jul-25 22:33N 48°18' W 123°57'1312.9
2016-Jul-25 21:33N 48°16' W 123°38'1110.9
2016-Jul-25 20:33N 48°22' W 123°25'9 9.1
2016-Jul-25 19:33N 48°26' W 123°12'1111.1
2016-Jul-25 18:33N 48°37' W 123°14'8 8.4
2016-Jul-25 17:33N 48°44' W 123°08'8 7.5
2016-Jul-25 16:33N 48°51' W 123°04'1212.1
2016-Jul-25 15:34N 48°60' W 123°17'1110.7
2016-Jul-25 14:33N 49°10' W 123°23'1110.7
2016-Jul-25 13:33N 49°19' W 123°15'7 6.8
2016-Jul-25 12:33N 49°18' W 123°05'5 5.0
2016-Jul-25 11:33N 49°18' W 122°57'0 0.4
2016-Jul-25 10:33N 49°18' W 122°56'2 1.6
2016-Jul-25 09:31N 49°17' W 122°54'0 0.0
2016-Jul-25 08:28N 49°17' W 122°54'0 0.0
2016-Jul-25 07:31N 49°17' W 122°54'0 0.0
2016-Jul-25 06:31N 49°17' W 122°54'0 0.0
2016-Jul-25 05:28N 49°17' W 122°54'0 0.0
2016-Jul-25 04:31N 49°17' W 122°54'0 0.0
2016-Jul-25 03:31N 49°17' W 122°54'0 0.0
2016-Jul-25 02:31N 49°17' W 122°54'0 0.0
2016-Jul-25 01:31N 49°17' W 122°54'0 0.0
2016-Jul-25 00:31N 49°17' W 122°54'0 0.0
2016-Jul-24 23:31N 49°17' W 122°54'0 0.0
2016-Jul-24 22:31N 49°17' W 122°54'0 0.0
2016-Jul-24 21:31N 49°17' W 122°54'0 0.0
2016-Jul-24 20:31N 49°17' W 122°54'0 0.0
2016-Jul-24 19:31N 49°17' W 122°54'0 0.0
2016-Jul-24 18:28N 49°17' W 122°54'0 0.0
2016-Jul-24 17:31N 49°17' W 122°54'0 0.0
2016-Jul-24 16:31N 49°17' W 122°54'0 0.0
2016-Jul-24 15:31N 49°17' W 122°54'0 0.0
2016-Jul-24 14:28N 49°17' W 122°54'0 0.0
2016-Jul-24 13:31N 49°17' W 122°54'0 0.0
2016-Jul-24 12:28N 49°17' W 122°54'0 0.0
2016-Jul-24 11:31N 49°17' W 122°54'0 0.0
2016-Jul-24 10:31N 49°17' W 122°54'0 0.0
2016-Jul-24 09:31N 49°17' W 122°54'0 0.0
2016-Jul-24 08:31N 49°17' W 122°54'0 0.0
2016-Jul-24 07:32N 49°17' W 122°54'0 0.0
2016-Jul-24 06:31N 49°17' W 122°54'0 0.0
2016-Jul-24 05:31N 49°17' W 122°54'0 0.0
2016-Jul-24 04:31N 49°17' W 122°54'0 0.0
2016-Jul-24 03:31N 49°17' W 122°54'0 0.0
2016-Jul-24 02:31N 49°17' W 122°54'0 0.0
2016-Jul-24 01:31N 49°17' W 122°54'0 0.0
2016-Jul-24 00:31N 49°17' W 122°54'0 0.0
2016-Jul-23 23:31N 49°17' W 122°54'0 0.0
2016-Jul-23 22:31N 49°17' W 122°54'0 0.0
2016-Jul-23 21:31N 49°17' W 122°54'0 0.0
2016-Jul-23 20:31N 49°17' W 122°54'0 0.0
2016-Jul-23 19:31N 49°17' W 122°54'0 0.0
2016-Jul-23 18:31N 49°17' W 122°54'0 0.0
2016-Jul-23 17:31N 49°17' W 122°54'0 0.0
2016-Jul-23 16:31N 49°17' W 122°54'0 0.0
2016-Jul-23 15:31N 49°17' W 122°54'0 0.0
2016-Jul-23 14:31N 49°17' W 122°54'0 0.0
2016-Jul-23 13:31N 49°17' W 122°54'2 2.6
2016-Jul-23 12:33N 49°18' W 122°58'0 0.3
2016-Jul-23 11:33N 49°18' W 122°58'0 0.1
2016-Jul-23 10:33N 49°18' W 122°58'0 0.0
2016-Jul-23 09:33N 49°18' W 122°58'0 0.0
2016-Jul-23 08:33N 49°18' W 122°58'0 0.0
2016-Jul-23 07:33N 49°18' W 122°58'0 0.0
2016-Jul-23 06:33N 49°18' W 122°58'1 0.5
2016-Jul-23 04:34N 49°18' W 122°60'6 6.2
2016-Jul-23 03:33N 49°19' W 123°09'9 8.9
2016-Jul-23 02:33N 49°13' W 123°19'1312.9
2016-Jul-23 01:33N 49°01' W 123°14'1514.6
2016-Jul-23 00:33N 48°49' W 122°60'1313.5
2016-Jul-22 23:33N 48°40' W 123°15'1414.3
2016-Jul-22 22:34N 48°26' W 123°10'1212.4
2016-Jul-22 21:34N 48°18' W 123°25'8 8.2
2016-Jul-22 20:33N 48°13' W 123°34'1211.8
2016-Jul-22 19:32N 48°13' W 123°52'1212.1
2016-Jul-22 18:33N 48°18' W 124°09'1211.8
2016-Jul-22 17:34N 48°23' W 124°25'1211.6
2016-Jul-22 16:34N 48°27' W 124°41'1211.9
2016-Jul-22 15:33N 48°29' W 124°59'1413.6
2016-Jul-22 14:33N 48°18' W 125°11'1414.3
2016-Jul-22 13:33N 48°07' W 125°25'4715.0
2016-Jul-22 10:26N 47°32' W 126°12'  
2016-Jul-19 07:32N 31°15' W 122°60'4414.6
2016-Jul-19 04:30N 30°46' W 122°21'1414.4
2016-Jul-19 03:33N 30°37' W 122°08'2214.3
2016-Jul-19 02:03N 30°23' W 121°50'814.4
2016-Jul-19 01:31N 30°19' W 121°42'2814.3
2016-Jul-18 23:31N 30°01' W 121°17'7414.7
2016-Jul-18 18:29N 29°14' W 120°10'1414.8
2016-Jul-18 17:33N 29°06' W 119°58'1514.9
2016-Jul-18 16:31N 28°56' W 119°44'1714.9
2016-Jul-18 15:23N 28°45' W 119°29'1314.9
2016-Jul-18 14:31N 28°37' W 119°18'6314.8
2016-Jul-18 10:16N 27°58' W 118°22'1414.6
2016-Jul-18 09:17N 27°49' W 118°09'1614.9
2016-Jul-18 08:12N 27°39' W 117°55'1015.0
2016-Jul-18 07:33N 27°33' W 117°47'1914.7
2016-Jul-18 06:18N 27°21' W 117°30'3214.7
2016-Jul-18 04:06N 27°01' W 117°02'914.9
2016-Jul-18 03:30N 26°55' W 116°54'1414.9
2016-Jul-18 02:33N 26°46' W 116°42'1514.7
2016-Jul-18 01:33N 26°37' W 116°29'6014.9
2016-Jul-17 21:34N 25°60' W 115°37'1514.6
2016-Jul-17 20:33N 25°50' W 115°25'1414.4
2016-Jul-17 19:34N 25°41' W 115°12'3014.4
2016-Jul-17 17:30N 25°23' W 114°47'1814.7
2016-Jul-17 16:16N 25°11' W 114°31'  
Track history (hours):
 
Tides and Currents Weather Stations Pressure Air Temp Water Temp Dewpoint Dewpoint Depression Visibility Wind Speed Wind Dir Waves Ship Positions

Butterfly

Last reported at 2016-Jul-26 14:31 UTC. Time now 2016-Jul-27 21:05 UTC.
Position N 46°45' W 127°54'.

Length 182 m; draft 11.9 m.

Type: Tanker. MMSI: 311985000.

Date/timePositionNaut miles runAvg speedWind from/ knotsBaromVisibWave heightAir tempDewpointWater temp
2016-Jul-26 14:31N 46°45' W 127°54'1512.9
2016-Jul-26 13:24N 46°54' W 127°38'1212.8
2016-Jul-26 12:29N 47°02' W 127°26'1213.0
2016-Jul-26 11:33N 47°10' W 127°12'1313.0
2016-Jul-26 10:33N 47°19' W 126°58'1313.0
2016-Jul-26 09:31N 47°28' W 126°43'1313.1
2016-Jul-26 08:34N 47°36' W 126°29'1312.9
2016-Jul-26 07:33N 47°45' W 126°15'1312.9
2016-Jul-26 06:34N 47°53' W 126°01'1312.8
2016-Jul-26 05:33N 48°02' W 125°46'1312.7
2016-Jul-26 04:32N 48°10' W 125°32'1312.8
2016-Jul-26 03:33N 48°19' W 125°18'1212.2
2016-Jul-26 02:33N 48°27' W 125°04'1611.2
2016-Jul-26 01:10N 48°30' W 124°41'2012.0
2016-Jul-25 23:31N 48°22' W 124°14'1212.3
2016-Jul-25 22:33N 48°18' W 123°57'1312.9
2016-Jul-25 21:33N 48°16' W 123°38'1110.9
2016-Jul-25 20:33N 48°22' W 123°25'9 9.1
2016-Jul-25 19:33N 48°26' W 123°12'1111.1
2016-Jul-25 18:33N 48°37' W 123°14'8 8.4
2016-Jul-25 17:33N 48°44' W 123°08'8 7.5
2016-Jul-25 16:33N 48°51' W 123°04'1212.1
2016-Jul-25 15:34N 48°60' W 123°17'1110.7
2016-Jul-25 14:33N 49°10' W 123°23'1110.7
2016-Jul-25 13:33N 49°19' W 123°15'7 6.8
2016-Jul-25 12:33N 49°18' W 123°05'5 5.0
2016-Jul-25 11:33N 49°18' W 122°57'0 0.4
2016-Jul-25 10:33N 49°18' W 122°56'2 1.6
2016-Jul-25 09:31N 49°17' W 122°54'0 0.0
2016-Jul-25 08:28N 49°17' W 122°54'0 0.0
2016-Jul-25 07:31N 49°17' W 122°54'0 0.0
2016-Jul-25 06:31N 49°17' W 122°54'0 0.0
2016-Jul-25 05:28N 49°17' W 122°54'0 0.0
2016-Jul-25 04:31N 49°17' W 122°54'0 0.0
2016-Jul-25 03:31N 49°17' W 122°54'0 0.0
2016-Jul-25 02:31N 49°17' W 122°54'0 0.0
2016-Jul-25 01:31N 49°17' W 122°54'0 0.0
2016-Jul-25 00:31N 49°17' W 122°54'0 0.0
2016-Jul-24 23:31N 49°17' W 122°54'0 0.0
2016-Jul-24 22:31N 49°17' W 122°54'0 0.0
2016-Jul-24 21:31N 49°17' W 122°54'0 0.0
2016-Jul-24 20:31N 49°17' W 122°54'0 0.0
2016-Jul-24 19:31N 49°17' W 122°54'0 0.0
2016-Jul-24 18:28N 49°17' W 122°54'0 0.0
2016-Jul-24 17:31N 49°17' W 122°54'0 0.0
2016-Jul-24 16:31N 49°17' W 122°54'0 0.0
2016-Jul-24 15:31N 49°17' W 122°54'0 0.0
2016-Jul-24 14:28N 49°17' W 122°54'0 0.0
2016-Jul-24 13:31N 49°17' W 122°54'0 0.0
2016-Jul-24 12:28N 49°17' W 122°54'0 0.0
2016-Jul-24 11:31N 49°17' W 122°54'0 0.0
2016-Jul-24 10:31N 49°17' W 122°54'0 0.0
2016-Jul-24 09:31N 49°17' W 122°54'0 0.0
2016-Jul-24 08:31N 49°17' W 122°54'0 0.0
2016-Jul-24 07:32N 49°17' W 122°54'0 0.0
2016-Jul-24 06:31N 49°17' W 122°54'0 0.0
2016-Jul-24 05:31N 49°17' W 122°54'0 0.0
2016-Jul-24 04:31N 49°17' W 122°54'0 0.0
2016-Jul-24 03:31N 49°17' W 122°54'0 0.0
2016-Jul-24 02:31N 49°17' W 122°54'0 0.0
2016-Jul-24 01:31N 49°17' W 122°54'0 0.0
2016-Jul-24 00:31N 49°17' W 122°54'0 0.0
2016-Jul-23 23:31N 49°17' W 122°54'0 0.0
2016-Jul-23 22:31N 49°17' W 122°54'0 0.0
2016-Jul-23 21:31N 49°17' W 122°54'0 0.0
2016-Jul-23 20:31N 49°17' W 122°54'0 0.0
2016-Jul-23 19:31N 49°17' W 122°54'0 0.0
2016-Jul-23 18:31N 49°17' W 122°54'0 0.0
2016-Jul-23 17:31N 49°17' W 122°54'0 0.0
2016-Jul-23 16:31N 49°17' W 122°54'0 0.0
2016-Jul-23 15:31N 49°17' W 122°54'0 0.0
2016-Jul-23 14:31N 49°17' W 122°54'0 0.0
2016-Jul-23 13:31N 49°17' W 122°54'2 2.6
2016-Jul-23 12:33N 49°18' W 122°58'0 0.3
2016-Jul-23 11:33N 49°18' W 122°58'0 0.1
2016-Jul-23 10:33N 49°18' W 122°58'0 0.0
2016-Jul-23 09:33N 49°18' W 122°58'0 0.0
2016-Jul-23 08:33N 49°18' W 122°58'0 0.0
2016-Jul-23 07:33N 49°18' W 122°58'0 0.0
2016-Jul-23 06:33N 49°18' W 122°58'1 0.5
2016-Jul-23 04:34N 49°18' W 122°60'6 6.2
2016-Jul-23 03:33N 49°19' W 123°09'9 8.9
2016-Jul-23 02:33N 49°13' W 123°19'1312.9
2016-Jul-23 01:33N 49°01' W 123°14'1514.6
2016-Jul-23 00:33N 48°49' W 122°60'1313.5
2016-Jul-22 23:33N 48°40' W 123°15'1414.3
2016-Jul-22 22:34N 48°26' W 123°10'1212.4
2016-Jul-22 21:34N 48°18' W 123°25'8 8.2
2016-Jul-22 20:33N 48°13' W 123°34'1211.8
2016-Jul-22 19:32N 48°13' W 123°52'1212.1
2016-Jul-22 18:33N 48°18' W 124°09'1211.8
2016-Jul-22 17:34N 48°23' W 124°25'1211.6
2016-Jul-22 16:34N 48°27' W 124°41'1211.9
2016-Jul-22 15:33N 48°29' W 124°59'1413.6
2016-Jul-22 14:33N 48°18' W 125°11'1414.3
2016-Jul-22 13:33N 48°07' W 125°25'4715.0
2016-Jul-22 10:26N 47°32' W 126°12'  
2016-Jul-19 07:32N 31°15' W 122°60'4414.6
2016-Jul-19 04:30N 30°46' W 122°21'1414.4
2016-Jul-19 03:33N 30°37' W 122°08'2214.3
2016-Jul-19 02:03N 30°23' W 121°50'814.4
2016-Jul-19 01:31N 30°19' W 121°42'2814.3
2016-Jul-18 23:31N 30°01' W 121°17'7414.7
2016-Jul-18 18:29N 29°14' W 120°10'1414.8
2016-Jul-18 17:33N 29°06' W 119°58'1514.9
2016-Jul-18 16:31N 28°56' W 119°44'1714.9
2016-Jul-18 15:23N 28°45' W 119°29'1314.9
2016-Jul-18 14:31N 28°37' W 119°18'6314.8
2016-Jul-18 10:16N 27°58' W 118°22'1414.6
2016-Jul-18 09:17N 27°49' W 118°09'1614.9
2016-Jul-18 08:12N 27°39' W 117°55'1015.0
2016-Jul-18 07:33N 27°33' W 117°47'1914.7
2016-Jul-18 06:18N 27°21' W 117°30'3214.7
2016-Jul-18 04:06N 27°01' W 117°02'914.9
2016-Jul-18 03:30N 26°55' W 116°54'1414.9
2016-Jul-18 02:33N 26°46' W 116°42'1514.7
2016-Jul-18 01:33N 26°37' W 116°29'6014.9
2016-Jul-17 21:34N 25°60' W 115°37'1514.6
2016-Jul-17 20:33N 25°50' W 115°25'1414.4
2016-Jul-17 19:34N 25°41' W 115°12'3014.4
2016-Jul-17 17:30N 25°23' W 114°47'1814.7
2016-Jul-17 16:16N 25°11' W 114°31'  

Dump ship's entire track history